createdAt,value
2022-10-26T00:00:51.837Z,4.85
2022-10-26T00:03:19.140Z,4.05
2022-10-26T00:05:45.737Z,2.95
2022-10-26T00:08:13.294Z,3.33
2022-10-26T00:10:40.141Z,3.30
2022-10-26T00:13:10.178Z,3.00
2022-10-26T00:15:40.214Z,2.72
2022-10-26T00:18:06.592Z,3.58
2022-10-26T00:20:33.109Z,2.60
2022-10-26T00:22:59.499Z,2.80
2022-10-26T00:25:25.899Z,2.65
2022-10-26T00:27:52.735Z,3.20
2022-10-26T00:30:19.129Z,2.60
2022-10-26T00:32:45.528Z,2.90
2022-10-26T00:35:22.871Z,2.47
2022-10-26T00:37:55.039Z,2.78
2022-10-26T00:40:21.613Z,2.40
2022-10-26T00:42:48.138Z,3.05
2022-10-26T00:45:24.485Z,2.47
2022-10-26T00:47:52.741Z,2.63
2022-10-26T00:50:27.604Z,2.60
2022-10-26T00:52:55.024Z,2.55
2022-10-26T00:55:25.230Z,2.85
2022-10-26T00:57:53.343Z,4.40
2022-10-26T01:00:20.485Z,4.00
2022-10-26T01:02:50.819Z,3.22
2022-10-26T01:05:19.096Z,3.13
2022-10-26T01:07:47.827Z,3.50
2022-10-26T01:10:15.186Z,3.20
2022-10-26T01:12:42.283Z,2.78
2022-10-26T01:15:09.356Z,1.90
2022-10-26T01:17:54.443Z,2.53
2022-10-26T01:20:43.402Z,2.65
2022-10-26T01:23:34.071Z,2.25
2022-10-26T01:26:16.889Z,3.00
2022-10-26T01:29:04.921Z,2.15
2022-10-26T01:31:41.067Z,2.42
2022-10-26T01:34:15.971Z,2.67
2022-10-26T01:36:55.212Z,2.38
2022-10-26T01:39:52.439Z,2.28
2022-10-26T01:42:21.638Z,3.90
2022-10-26T01:44:53.355Z,4.07
2022-10-26T01:47:22.031Z,4.35
2022-10-26T01:49:53.391Z,3.92
2022-10-26T01:52:20.434Z,2.78
2022-10-26T01:54:46.863Z,3.25
2022-10-26T01:57:17.846Z,2.60
2022-10-26T02:00:10.500Z,4.15
2022-10-26T02:02:54.735Z,4.13
2022-10-26T02:05:36.749Z,4.82
2022-10-26T02:08:23.712Z,3.58
2022-10-26T02:11:10.010Z,3.45
2022-10-26T02:13:56.862Z,3.80
2022-10-26T02:16:58.119Z,4.15
2022-10-26T02:19:44.456Z,5.25
2022-10-26T02:22:26.149Z,6.25
2022-10-26T02:24:54.016Z,6.57
2022-10-26T02:27:24.687Z,5.90
2022-10-26T02:29:53.797Z,7.43
2022-10-26T02:32:22.158Z,6.32
2022-10-26T02:34:51.430Z,7.68
2022-10-26T02:37:21.270Z,7.32
2022-10-26T02:39:51.376Z,6.95
2022-10-26T02:42:18.927Z,7.53
2022-10-26T02:44:51.473Z,7.35
2022-10-26T02:47:19.491Z,6.47
2022-10-26T02:49:45.950Z,6.57
2022-10-26T02:52:18.380Z,6.47
2022-10-26T02:55:00.697Z,6.55
2022-10-26T02:57:34.114Z,6.10
2022-10-26T03:00:01.705Z,6.40
2022-10-26T03:02:30.087Z,6.32
2022-10-26T03:04:56.489Z,6.97
2022-10-26T03:07:23.895Z,7.35
2022-10-26T03:09:50.627Z,6.18
2022-10-26T03:12:17.623Z,6.68
2022-10-26T03:14:44.031Z,6.18
2022-10-26T03:17:10.429Z,7.30
2022-10-26T03:19:36.821Z,7.68
2022-10-26T03:22:03.223Z,7.72
2022-10-26T03:24:29.629Z,8.07
2022-10-26T03:26:58.273Z,7.32
2022-10-26T03:29:27.572Z,7.07
2022-10-26T03:31:55.238Z,7.45
2022-10-26T03:34:21.727Z,6.53
2022-10-26T03:36:48.311Z,7.50
2022-10-26T03:39:14.802Z,6.93
2022-10-26T03:41:41.258Z,7.25
2022-10-26T03:44:07.716Z,7.13
2022-10-26T03:46:34.093Z,7.00
2022-10-26T03:49:00.486Z,5.93
2022-10-26T03:51:28.028Z,6.43
2022-10-26T03:53:54.422Z,6.28
2022-10-26T03:56:20.808Z,6.95
2022-10-26T03:58:47.187Z,7.40
2022-10-26T04:01:13.627Z,8.43
2022-10-26T04:03:40.034Z,10.30
2022-10-26T04:06:06.422Z,9.15
2022-10-26T04:08:32.831Z,8.57
2022-10-26T04:11:02.360Z,7.30
2022-10-26T04:13:30.969Z,7.50
2022-10-26T04:15:57.516Z,7.45
2022-10-26T04:18:23.906Z,7.45
2022-10-26T04:20:50.310Z,7.53
2022-10-26T04:23:18.535Z,6.82
2022-10-26T04:25:45.324Z,7.30
2022-10-26T04:28:13.518Z,6.70
2022-10-26T04:30:40.552Z,6.13
2022-10-26T04:33:07.479Z,5.55
2022-10-26T04:35:33.950Z,6.30
2022-10-26T04:38:01.871Z,5.90
2022-10-26T04:40:29.341Z,5.32
2022-10-26T04:42:55.939Z,5.85
2022-10-26T04:45:22.578Z,5.18
2022-10-26T04:48:02.842Z,5.40
2022-10-26T04:50:29.318Z,3.77
2022-10-26T04:52:55.861Z,5.90
2022-10-26T04:55:22.399Z,6.03
2022-10-26T04:57:49.121Z,5.80
2022-10-26T05:00:15.895Z,6.65
2022-10-26T05:02:42.335Z,6.68
2022-10-26T05:05:11.350Z,8.27
2022-10-26T05:07:40.574Z,8.25
2022-10-26T05:10:07.626Z,8.70
2022-10-26T05:12:34.010Z,9.05
2022-10-26T05:15:02.943Z,8.10
2022-10-26T05:17:31.556Z,7.53
2022-10-26T05:20:00.197Z,7.05
2022-10-26T05:22:26.651Z,7.30
2022-10-26T05:24:53.095Z,6.75
2022-10-26T05:27:19.498Z,6.25
2022-10-26T05:29:45.891Z,6.72
2022-10-26T05:32:12.301Z,6.00
2022-10-26T05:34:40.845Z,6.65
2022-10-26T05:37:08.043Z,7.85
2022-10-26T05:39:34.427Z,8.65
2022-10-26T05:42:00.831Z,7.43
2022-10-26T05:44:27.395Z,8.07
2022-10-26T05:46:53.809Z,9.10
2022-10-26T05:49:20.223Z,9.68
2022-10-26T05:51:46.607Z,8.90
2022-10-26T05:54:14.001Z,9.25
2022-10-26T05:56:41.562Z,7.35
2022-10-26T05:59:13.767Z,7.05
2022-10-26T06:01:53.844Z,8.15
2022-10-26T06:04:31.513Z,7.53
2022-10-26T06:06:59.159Z,7.75
2022-10-26T06:09:26.051Z,7.97
2022-10-26T06:11:52.720Z,7.82
2022-10-26T06:14:19.313Z,8.60
2022-10-26T06:16:58.040Z,9.77
2022-10-26T06:19:43.968Z,8.82
2022-10-26T06:22:33.709Z,8.13
2022-10-26T06:25:12.684Z,12.48
2022-10-26T06:27:50.565Z,10.48
2022-10-26T06:30:23.389Z,8.90
2022-10-26T06:32:57.387Z,8.95
2022-10-26T06:35:41.598Z,8.38
2022-10-26T06:38:13.225Z,9.10
2022-10-26T06:40:42.433Z,8.45
2022-10-26T06:43:26.034Z,9.32
2022-10-26T06:46:11.427Z,8.80
2022-10-26T06:48:56.602Z,8.35
2022-10-26T06:51:24.897Z,8.90
2022-10-26T06:54:03.187Z,8.32
2022-10-26T06:56:29.778Z,9.13
2022-10-26T06:59:06.286Z,9.40
2022-10-26T07:01:33.586Z,10.43
2022-10-26T07:04:00.046Z,10.00
2022-10-26T07:06:26.465Z,9.73
2022-10-26T07:08:52.839Z,9.50
2022-10-26T07:11:19.228Z,10.95
2022-10-26T07:13:45.607Z,10.23
2022-10-26T07:16:12.031Z,10.02
2022-10-26T07:18:38.431Z,10.48
2022-10-26T07:21:04.893Z,9.15
2022-10-26T07:23:31.302Z,10.20
2022-10-26T07:26:00.060Z,10.30
2022-10-26T07:28:26.529Z,10.10
2022-10-26T07:30:56.209Z,10.40
2022-10-26T07:33:22.753Z,9.35
2022-10-26T07:35:49.283Z,10.38
2022-10-26T07:38:15.698Z,9.38
2022-10-26T07:40:42.094Z,9.05
2022-10-26T07:43:08.606Z,9.00
2022-10-26T07:45:36.673Z,8.57
2022-10-26T07:48:03.313Z,9.07
2022-10-26T07:50:29.716Z,9.20
2022-10-26T07:52:58.474Z,9.88
2022-10-26T07:55:24.923Z,9.13
2022-10-26T07:57:54.452Z,8.45
2022-10-26T08:00:21.869Z,9.18
2022-10-26T08:02:48.379Z,8.75
2022-10-26T08:05:14.817Z,9.18
2022-10-26T08:07:43.694Z,8.40
2022-10-26T08:10:15.873Z,9.38
2022-10-26T08:12:43.612Z,9.10
2022-10-26T08:15:10.206Z,8.93
2022-10-26T08:17:36.595Z,9.35
2022-10-26T08:20:03.299Z,8.82
2022-10-26T08:22:30.626Z,9.23
2022-10-26T08:24:57.256Z,8.70
2022-10-26T08:27:23.716Z,8.95
2022-10-26T08:29:50.116Z,8.18
2022-10-26T08:32:16.514Z,9.15
2022-10-26T08:34:42.891Z,8.63
2022-10-26T08:37:09.283Z,8.75
2022-10-26T08:39:35.666Z,8.13
2022-10-26T08:42:13.855Z,8.57
2022-10-26T08:44:47.011Z,8.93
2022-10-26T08:47:30.485Z,7.75
2022-10-26T08:50:01.931Z,8.18
2022-10-26T08:52:36.601Z,8.63
2022-10-26T08:55:07.357Z,8.20
2022-10-26T08:57:42.211Z,8.02
2022-10-26T09:00:15.611Z,7.40
2022-10-26T09:02:42.025Z,8.63
2022-10-26T09:05:16.589Z,7.32
2022-10-26T09:08:18.615Z,7.85
2022-10-26T09:11:08.181Z,7.82
2022-10-26T09:13:49.211Z,8.05
2022-10-26T09:19:04.003Z,7.53
2022-10-26T09:21:33.075Z,8.17
2022-10-26T09:24:06.922Z,7.15
2022-10-26T09:26:54.779Z,8.23
2022-10-26T09:29:29.852Z,7.38
2022-10-26T09:32:00.103Z,5.88
2022-10-26T09:34:48.380Z,7.05
2022-10-26T09:37:19.918Z,5.80
2022-10-26T09:39:56.686Z,6.38
2022-10-26T09:42:31.759Z,5.93
2022-10-26T09:45:05.350Z,5.70
2022-10-26T09:47:36.988Z,6.38
2022-10-26T09:50:25.059Z,5.95
2022-10-26T09:52:51.818Z,6.10
2022-10-26T09:55:18.840Z,5.55
2022-10-26T09:57:47.684Z,5.75
2022-10-26T10:00:16.211Z,5.28
2022-10-26T10:02:44.970Z,5.45
2022-10-26T10:05:52.427Z,5.22
2022-10-26T10:08:23.135Z,4.90
2022-10-26T10:10:59.983Z,5.72
2022-10-26T10:13:29.083Z,5.28
2022-10-26T10:16:02.080Z,5.30
2022-10-26T10:18:28.704Z,5.13
2022-10-26T10:20:57.508Z,4.68
2022-10-26T10:23:30.235Z,3.80
2022-10-26T10:26:02.758Z,4.50
2022-10-26T10:28:29.666Z,4.53
2022-10-26T10:31:01.479Z,3.28
2022-10-26T10:33:40.366Z,3.28
2022-10-26T10:36:32.245Z,3.10
2022-10-26T10:38:59.864Z,2.80
2022-10-26T10:41:32.492Z,3.28
2022-10-26T10:44:07.770Z,3.30
2022-10-26T10:46:35.101Z,2.55
2022-10-26T10:49:04.567Z,3.20
2022-10-26T10:51:38.631Z,2.00
2022-10-26T10:54:06.843Z,2.65
2022-10-26T10:56:36.025Z,2.45
2022-10-26T10:59:33.725Z,2.60
2022-10-26T11:02:23.577Z,2.30
2022-10-26T11:05:07.947Z,2.30
2022-10-26T11:07:47.034Z,2.40
2022-10-26T11:10:17.712Z,2.28
2022-10-26T11:12:51.712Z,2.20
2022-10-26T11:15:22.479Z,2.40
2022-10-26T11:18:04.053Z,2.30
2022-10-26T11:20:33.512Z,2.00
2022-10-26T11:23:13.022Z,2.00
2022-10-26T11:25:50.113Z,2.33
2022-10-26T11:28:29.397Z,2.00
2022-10-26T11:31:02.721Z,2.25
2022-10-26T11:33:37.127Z,2.30
2022-10-26T11:36:09.294Z,1.70
2022-10-26T11:38:56.354Z,2.20
2022-10-26T11:41:34.974Z,2.35
2022-10-26T11:44:34.413Z,1.60
2022-10-26T11:47:12.136Z,2.17
2022-10-26T11:49:55.855Z,1.67
2022-10-26T11:52:34.380Z,2.13
2022-10-26T11:55:02.655Z,1.88
2022-10-26T11:57:33.943Z,1.88
2022-10-26T12:00:07.478Z,1.70
2022-10-26T12:05:42.344Z,2.22
2022-10-26T12:08:15.632Z,1.80
2022-10-26T12:10:48.987Z,2.00
2022-10-26T12:13:27.310Z,2.05
2022-10-26T12:16:04.822Z,1.98
2022-10-26T12:18:56.065Z,1.83
2022-10-26T12:21:31.413Z,1.98
2022-10-26T12:24:02.665Z,1.92
2022-10-26T12:26:28.982Z,2.08
2022-10-26T12:29:01.368Z,1.85
2022-10-26T12:31:37.069Z,1.60
2022-10-26T12:34:45.227Z,2.40
2022-10-26T12:37:28.524Z,2.67
2022-10-26T12:39:54.913Z,2.00
2022-10-26T12:42:30.026Z,1.80
2022-10-26T12:44:59.426Z,1.90
2022-10-26T12:47:28.786Z,1.88
2022-10-26T12:50:07.543Z,1.67
2022-10-26T12:52:56.491Z,2.00
2022-10-26T12:55:48.611Z,2.08
2022-10-26T12:58:22.550Z,1.90
2022-10-26T13:01:21.487Z,2.22
2022-10-26T13:04:14.805Z,2.00
2022-10-26T13:06:54.533Z,1.70
2022-10-26T13:09:24.193Z,1.52
2022-10-26T13:11:55.282Z,1.92
2022-10-26T13:14:25.690Z,2.25
2022-10-26T13:16:52.597Z,2.50
2022-10-26T13:19:30.866Z,1.85
2022-10-26T13:21:59.792Z,1.73
2022-10-26T13:24:30.295Z,1.73
2022-10-26T13:27:08.000Z,1.90
2022-10-26T13:30:03.280Z,1.90
2022-10-26T13:32:38.788Z,1.40
2022-10-26T13:35:10.805Z,1.33
2022-10-26T13:37:43.833Z,1.90
2022-10-26T13:40:18.290Z,1.67
2022-10-26T13:42:48.487Z,1.80
2022-10-26T13:45:21.507Z,1.83
2022-10-26T13:47:55.083Z,1.90
2022-10-26T13:50:27.662Z,1.75
2022-10-26T13:53:01.171Z,1.25
2022-10-26T13:55:50.457Z,1.98
2022-10-26T13:58:43.134Z,1.98
2022-10-26T14:01:09.924Z,2.00
2022-10-26T14:03:37.296Z,2.00
2022-10-26T14:06:06.563Z,1.50
2022-10-26T14:08:32.953Z,1.55
2022-10-26T14:10:59.819Z,1.90
2022-10-26T14:13:28.792Z,2.33
2022-10-26T14:15:57.235Z,1.77
2022-10-26T14:18:30.441Z,2.13
2022-10-26T14:21:01.690Z,2.10
2022-10-26T14:23:46.155Z,2.28
2022-10-26T14:26:24.612Z,2.00
2022-10-26T14:28:55.543Z,1.70
2022-10-26T14:31:26.653Z,2.33
2022-10-26T14:33:54.630Z,2.08
2022-10-26T14:36:26.526Z,2.05
2022-10-26T14:38:59.412Z,1.90
2022-10-26T14:41:27.124Z,2.00
2022-10-26T14:43:56.232Z,2.10
2022-10-26T14:46:22.824Z,2.20
2022-10-26T14:48:57.552Z,2.08
2022-10-26T14:51:28.862Z,2.30
2022-10-26T14:53:58.383Z,1.98
2022-10-26T14:56:31.778Z,2.38
2022-10-26T14:58:58.974Z,2.47
2022-10-26T15:01:30.269Z,2.53
2022-10-26T15:04:07.475Z,2.50
2022-10-26T15:06:42.685Z,2.08
2022-10-26T15:09:38.891Z,2.20
2022-10-26T15:12:06.404Z,1.90
2022-10-26T15:14:34.246Z,2.45
2022-10-26T15:17:00.809Z,2.10
2022-10-26T15:19:27.880Z,2.00
2022-10-26T15:21:54.770Z,2.20
2022-10-26T15:24:21.083Z,2.70
2022-10-26T15:26:48.055Z,2.45
2022-10-26T15:29:41.034Z,2.50
2022-10-26T15:32:19.071Z,2.22
2022-10-26T15:35:19.398Z,2.45
2022-10-26T15:37:46.688Z,2.10
2022-10-26T15:40:14.045Z,2.67
2022-10-26T15:42:41.636Z,2.42
2022-10-26T15:45:21.726Z,2.60
2022-10-26T15:47:49.032Z,2.80
2022-10-26T15:50:17.588Z,2.38
2022-10-26T15:52:46.676Z,2.35
2022-10-26T15:55:16.450Z,2.88
2022-10-26T15:57:43.196Z,2.67
2022-10-26T16:00:15.132Z,2.63
2022-10-26T16:02:42.637Z,2.72
2022-10-26T16:05:09.424Z,2.78
2022-10-26T16:07:35.790Z,2.60
2022-10-26T16:10:02.268Z,2.53
2022-10-26T16:12:28.653Z,3.15
2022-10-26T16:15:22.195Z,3.25
2022-10-26T16:17:49.582Z,2.92
2022-10-26T16:20:22.986Z,3.08
2022-10-26T16:22:51.905Z,3.33
2022-10-26T16:25:21.683Z,3.30
2022-10-26T16:27:49.569Z,3.28
2022-10-26T16:30:16.927Z,2.97
2022-10-26T16:32:43.550Z,2.97
2022-10-26T16:35:11.340Z,3.17
2022-10-26T16:37:38.122Z,3.50
2022-10-26T16:40:06.125Z,3.50
2022-10-26T16:42:32.766Z,3.65
2022-10-26T16:45:02.532Z,3.03
2022-10-26T16:47:29.475Z,3.60
2022-10-26T16:49:55.861Z,3.30
2022-10-26T16:52:22.267Z,4.50
2022-10-26T16:54:48.671Z,4.35
2022-10-26T16:57:15.486Z,4.47
2022-10-26T16:59:41.943Z,4.20
2022-10-26T17:02:09.935Z,4.13
2022-10-26T17:04:36.386Z,3.97
2022-10-26T17:07:02.765Z,3.88
2022-10-26T17:09:29.521Z,3.45
2022-10-26T17:12:00.953Z,3.65
2022-10-26T17:14:28.341Z,3.42
2022-10-26T17:16:54.743Z,3.13
2022-10-26T17:19:21.162Z,4.20
2022-10-26T17:21:47.554Z,3.30
2022-10-26T17:24:14.194Z,3.40
2022-10-26T17:26:41.107Z,4.05
2022-10-26T17:29:07.558Z,3.58
2022-10-26T17:31:33.951Z,5.20
2022-10-26T17:34:00.374Z,5.70
2022-10-26T17:36:27.264Z,5.15
2022-10-26T17:38:55.158Z,4.35
2022-10-26T17:41:22.535Z,4.28
2022-10-26T17:43:51.722Z,3.70
2022-10-26T17:46:20.792Z,3.83
2022-10-26T17:48:47.255Z,3.97
2022-10-26T17:51:16.107Z,4.57
2022-10-26T17:53:42.925Z,4.00
2022-10-26T17:56:16.163Z,4.72
2022-10-26T17:58:42.602Z,4.90
2022-10-26T18:01:11.341Z,4.35
2022-10-26T18:03:38.922Z,6.95
2022-10-26T18:06:09.431Z,9.60
2022-10-26T18:08:37.191Z,13.45
2022-10-26T18:11:04.967Z,8.98
2022-10-26T18:13:33.899Z,7.75
2022-10-26T18:16:07.907Z,8.80
2022-10-26T18:18:34.955Z,10.45
2022-10-26T18:21:06.798Z,12.30
2022-10-26T18:23:33.250Z,11.32
2022-10-26T18:26:02.679Z,11.30
2022-10-26T18:28:29.231Z,11.60
2022-10-26T18:31:00.933Z,11.32
2022-10-26T18:33:27.501Z,10.68
2022-10-26T18:35:53.889Z,11.07
2022-10-26T18:38:20.631Z,11.60
2022-10-26T18:40:53.222Z,10.38
2022-10-26T18:43:19.696Z,9.95
2022-10-26T18:45:47.859Z,8.85
2022-10-26T18:48:14.936Z,7.68
2022-10-26T18:50:41.720Z,7.88
2022-10-26T18:53:12.581Z,8.02
2022-10-26T18:58:10.751Z,8.20
2022-10-26T19:00:38.845Z,8.35
2022-10-26T19:03:06.893Z,8.60
2022-10-26T19:05:34.990Z,7.72
2022-10-26T19:08:01.408Z,8.73
2022-10-26T19:10:27.831Z,8.82
2022-10-26T19:12:54.459Z,8.38
2022-10-26T19:15:21.357Z,8.23
2022-10-26T19:17:47.750Z,7.03
2022-10-26T19:20:14.182Z,7.57
2022-10-26T19:22:40.583Z,8.02
2022-10-26T19:25:07.615Z,7.07
2022-10-26T19:27:33.996Z,8.35
2022-10-26T19:30:00.530Z,7.88
2022-10-26T19:32:28.580Z,8.57
2022-10-26T19:34:54.999Z,7.75
2022-10-26T19:37:23.679Z,8.25
2022-10-26T19:39:54.353Z,8.68
2022-10-26T19:42:20.756Z,7.22
2022-10-26T19:44:47.145Z,6.97
2022-10-26T19:47:13.553Z,7.50
2022-10-26T19:49:39.960Z,8.05
2022-10-26T19:52:06.404Z,7.03
2022-10-26T19:54:32.834Z,8.43
2022-10-26T19:56:59.275Z,11.30
2022-10-26T19:59:26.724Z,11.18
2022-10-26T20:01:53.205Z,8.27
2022-10-26T20:04:19.705Z,7.85
2022-10-26T20:06:46.413Z,7.30
2022-10-26T20:09:12.851Z,8.15
2022-10-26T20:11:42.878Z,8.98
2022-10-26T20:14:09.907Z,8.50
2022-10-26T20:16:36.292Z,10.05
2022-10-26T20:19:02.720Z,10.70
2022-10-26T20:21:29.179Z,8.98
2022-10-26T20:23:55.585Z,8.55
2022-10-26T20:26:23.368Z,8.60
2022-10-26T20:28:51.658Z,8.93
2022-10-26T20:31:18.332Z,7.50
2022-10-26T20:33:44.741Z,7.93
2022-10-26T20:36:11.144Z,8.45
2022-10-26T20:38:39.051Z,9.02
2022-10-26T20:41:07.977Z,7.95
2022-10-26T20:43:41.162Z,8.10
2022-10-26T20:48:38.592Z,8.02
2022-10-26T20:51:14.369Z,6.93
2022-10-26T20:53:50.167Z,7.95
2022-10-26T20:56:26.033Z,7.95
2022-10-26T20:58:57.645Z,6.22
2022-10-26T21:01:27.327Z,7.15
2022-10-26T21:03:55.466Z,7.70
2022-10-26T21:06:22.768Z,6.65
2022-10-26T21:08:50.751Z,4.97
2022-10-26T21:11:18.061Z,6.22
2022-10-26T21:13:46.654Z,5.57
2022-10-26T21:16:13.545Z,5.93
2022-10-26T21:18:40.157Z,6.60
2022-10-26T21:21:06.790Z,5.65
2022-10-26T21:23:36.637Z,5.68
2022-10-26T21:26:04.013Z,5.13
2022-10-26T21:28:47.335Z,4.80
2022-10-26T21:31:16.317Z,5.00
2022-10-26T21:33:43.306Z,4.30
2022-10-26T21:36:12.231Z,4.03
2022-10-26T21:38:40.075Z,4.35
2022-10-26T21:41:11.689Z,4.30
2022-10-26T21:43:40.016Z,3.63
2022-10-26T21:46:07.153Z,3.72
2022-10-26T21:48:34.653Z,3.78
2022-10-26T21:51:11.274Z,3.92
2022-10-26T21:53:37.659Z,4.28
2022-10-26T21:56:09.744Z,4.20
2022-10-26T21:58:36.752Z,3.65
2022-10-26T22:01:06.494Z,3.70
2022-10-26T22:03:33.255Z,3.45
2022-10-26T22:05:59.770Z,3.85
2022-10-26T22:08:26.225Z,3.95
2022-10-26T22:10:52.668Z,3.72
2022-10-26T22:13:19.061Z,3.47
2022-10-26T22:15:45.581Z,3.90
2022-10-26T22:18:11.969Z,3.50
2022-10-26T22:20:38.404Z,3.13
2022-10-26T22:25:36.107Z,3.75
2022-10-26T22:28:02.503Z,3.78
2022-10-26T22:30:28.890Z,3.75
2022-10-26T22:32:55.295Z,3.17
2022-10-26T22:35:29.384Z,4.00
2022-10-26T22:37:57.100Z,4.40
2022-10-26T22:40:23.499Z,4.32
2022-10-26T22:42:53.499Z,4.30
2022-10-26T22:45:20.048Z,4.10
2022-10-26T22:47:46.443Z,4.47
2022-10-26T22:50:12.817Z,4.90
2022-10-26T22:52:39.208Z,5.10
2022-10-26T22:55:05.933Z,5.63
2022-10-26T22:57:32.325Z,5.20
2022-10-26T22:59:58.717Z,5.40
2022-10-26T23:02:25.196Z,5.30
2022-10-26T23:04:51.600Z,5.43
2022-10-26T23:07:17.986Z,5.20
2022-10-26T23:09:44.358Z,4.97
2022-10-26T23:12:10.748Z,4.90
2022-10-26T23:14:37.130Z,5.50
2022-10-26T23:17:03.838Z,5.22
2022-10-26T23:19:30.239Z,5.50
2022-10-26T23:21:56.627Z,4.93
2022-10-26T23:24:23.069Z,4.32
2022-10-26T23:26:49.457Z,4.75
2022-10-26T23:29:16.394Z,4.53
2022-10-26T23:31:42.771Z,5.25
2022-10-26T23:34:09.273Z,5.18
2022-10-26T23:36:35.659Z,5.57
2022-10-26T23:39:02.047Z,5.35
2022-10-26T23:41:28.907Z,5.18
2022-10-26T23:43:55.289Z,5.53
2022-10-26T23:46:21.698Z,5.30
2022-10-26T23:48:48.178Z,5.05
2022-10-26T23:51:14.564Z,5.47
2022-10-26T23:53:40.992Z,4.30
2022-10-26T23:56:07.739Z,4.10
2022-10-26T23:58:34.142Z,4.80
